Time;durP1;ratioP1;P1;durP2;ratioP2;P2;SDS_P1;SDS_P2;PMS_P1;PMS_P2;Temp;Humidity;BMP_temperature;BMP_pressure;BME280_temperature;BME280_humidity;BME280_pressure;Samples;Min_cycle;Max_cycle;Signal;HPM_P1;HPM_P2
2023/04/15 00:00:27;;;;;;;3.55;1.55;;;;;;;;;;10405003;28;20057;-61
2023/04/15 00:05:32;;;;;;;3.05;1.75;;;;;;;;;;10404037;28;20022;-59
2023/04/15 00:10:32;;;;;;;3.97;1.70;;;;;;;;;;10403810;28;20487;-60
2023/04/15 00:15:33;;;;;;;2.63;1.40;;;;;;;;;;10403443;28;20026;-60
2023/04/15 00:20:34;;;;;;;1.98;1.45;;;;;;;;;;10402198;28;20017;-60
2023/04/15 00:25:35;;;;;;;6.32;1.70;;;;;;;;;;10403030;28;20045;-60
2023/04/15 00:30:36;;;;;;;2.58;1.85;;;;;;;;;;10408407;28;20473;-60
2023/04/15 00:35:37;;;;;;;2.28;1.20;;;;;;;;;;10410013;28;20477;-60
2023/04/15 00:40:37;;;;;;;2.10;1.52;;;;;;;;;;10410356;28;20095;-60
2023/04/15 00:45:38;;;;;;;2.28;1.40;;;;;;;;;;10410448;28;20040;-60
2023/04/15 00:50:38;;;;;;;2.67;1.50;;;;;;;;;;10409796;28;20018;-61
2023/04/15 00:55:39;;;;;;;3.33;1.70;;;;;;;;;;10409305;28;20605;-60
2023/04/15 01:00:41;;;;;;;2.10;1.67;;;;;;;;;;10411232;28;20029;-61
2023/04/15 01:05:41;;;;;;;3.40;1.60;;;;;;;;;;10392883;28;20053;-60
2023/04/15 01:10:42;;;;;;;2.65;1.58;;;;;;;;;;10409581;28;20366;-60
2023/04/15 01:15:43;;;;;;;1.10;1.10;;;;;;;;;;10392440;28;20032;-60
2023/04/15 01:20:44;;;;;;;3.95;1.30;;;;;;;;;;10391089;28;20381;-60
2023/04/15 01:25:46;;;;;;;3.35;1.55;;;;;;;;;;10408366;28;20389;-60
2023/04/15 01:30:47;;;;;;;2.35;1.20;;;;;;;;;;10408425;28;20075;-61
2023/04/15 01:35:48;;;;;;;1.42;1.13;;;;;;;;;;10409193;28;20071;-61
2023/04/15 01:40:48;;;;;;;1.80;1.48;;;;;;;;;;10407538;28;20022;-61
2023/04/15 01:45:49;;;;;;;1.73;1.52;;;;;;;;;;10407728;28;20493;-61
2023/04/15 01:50:50;;;;;;;1.40;1.30;;;;;;;;;;10408073;28;20037;-60
2023/04/15 01:55:51;;;;;;;1.52;1.13;;;;;;;;;;10409109;28;20040;-60
2023/04/15 02:00:52;;;;;;;2.40;1.13;;;;;;;;;;10408119;28;20037;-61
2023/04/15 02:05:53;;;;;;;2.10;1.30;;;;;;;;;;10408263;28;20389;-60
2023/04/15 02:10:53;;;;;;;4.25;1.30;;;;;;;;;;10403345;28;20370;-60
2023/04/15 02:15:54;;;;;;;1.50;1.40;;;;;;;;;;10404981;28;20412;-60
2023/04/15 02:20:57;;;;;;;4.50;1.20;;;;;;;;;;10406285;28;20373;-60
2023/04/15 02:25:58;;;;;;;1.42;1.30;;;;;;;;;;10405668;28;20068;-61
2023/04/15 02:31:00;;;;;;;5.82;1.50;;;;;;;;;;10404768;28;20024;-60
2023/04/15 02:36:01;;;;;;;1.58;1.20;;;;;;;;;;10405836;28;20034;-60
2023/04/15 02:41:02;;;;;;;1.40;1.13;;;;;;;;;;10404922;28;20029;-60
2023/04/15 02:46:03;;;;;;;1.23;1.15;;;;;;;;;;10405275;28;20037;-60
2023/04/15 02:51:18;;;;;;;3.05;1.30;;;;;;;;;;10403324;28;20079;-60
2023/04/15 02:56:19;;;;;;;1.40;1.30;;;;;;;;;;10406695;28;20033;-60
2023/04/15 03:01:20;;;;;;;1.45;1.30;;;;;;;;;;10405253;28;20481;-61
2023/04/15 03:06:20;;;;;;;2.40;1.25;;;;;;;;;;10406580;28;20033;-61
2023/04/15 03:11:21;;;;;;;1.75;1.15;;;;;;;;;;10404026;28;20400;-60
2023/04/15 03:16:22;;;;;;;1.00;1.00;;;;;;;;;;10404508;28;20076;-60
2023/04/15 03:21:22;;;;;;;2.53;1.10;;;;;;;;;;10405920;28;20405;-61
2023/04/15 03:26:29;;;;;;;1.00;1.00;;;;;;;;;;10404488;28;20465;-61
2023/04/15 03:31:30;;;;;;;1.38;1.10;;;;;;;;;;10403656;28;20064;-61
2023/04/15 03:36:33;;;;;;;11.00;1.20;;;;;;;;;;10374994;28;20025;-61
2023/04/15 03:41:34;;;;;;;1.10;1.00;;;;;;;;;;10404728;28;20026;-61
2023/04/15 03:46:35;;;;;;;1.27;1.10;;;;;;;;;;10404845;28;20480;-61
2023/04/15 03:51:35;;;;;;;1.75;1.05;;;;;;;;;;10403342;28;20181;-61
2023/04/15 03:56:36;;;;;;;1.20;0.90;;;;;;;;;;10403475;28;20021;-61
2023/04/15 04:01:36;;;;;;;2.03;1.25;;;;;;;;;;10404570;28;20398;-61
2023/04/15 04:06:37;;;;;;;2.38;1.10;;;;;;;;;;10411401;28;20588;-60
2023/04/15 04:11:38;;;;;;;6.43;1.10;;;;;;;;;;10411972;28;20487;-60
2023/04/15 04:16:38;;;;;;;1.38;1.20;;;;;;;;;;10411815;28;20033;-60
2023/04/15 04:21:39;;;;;;;1.20;1.10;;;;;;;;;;10411170;28;20033;-60
2023/04/15 04:26:40;;;;;;;1.45;1.17;;;;;;;;;;10394710;28;20033;-61
2023/04/15 04:31:40;;;;;;;1.20;1.10;;;;;;;;;;10411645;28;20037;-61
2023/04/15 04:36:41;;;;;;;2.45;1.20;;;;;;;;;;10411902;28;20053;-61
2023/04/15 04:41:41;;;;;;;2.00;1.00;;;;;;;;;;10410577;28;20025;-60
2023/04/15 04:46:42;;;;;;;1.42;1.00;;;;;;;;;;10410896;28;20124;-60
2023/04/15 04:51:43;;;;;;;1.48;1.20;;;;;;;;;;10410776;28;20052;-61
2023/04/15 04:56:43;;;;;;;1.33;1.20;;;;;;;;;;10411031;28;20029;-61
2023/04/15 05:01:44;;;;;;;1.80;1.40;;;;;;;;;;10406501;28;20249;-60
2023/04/15 05:06:44;;;;;;;2.95;1.08;;;;;;;;;;10409984;28;20029;-61
2023/04/15 05:11:45;;;;;;;1.17;1.00;;;;;;;;;;10408517;28;20120;-61
2023/04/15 05:16:46;;;;;;;1.08;0.93;;;;;;;;;;10408541;28;20064;-60
2023/04/15 05:21:46;;;;;;;1.25;1.10;;;;;;;;;;10408140;28;20072;-60
2023/04/15 05:26:47;;;;;;;1.30;1.13;;;;;;;;;;10408438;28;20022;-60
2023/04/15 05:31:47;;;;;;;0.90;0.90;;;;;;;;;;10408177;28;20052;-60
2023/04/15 05:36:48;;;;;;;1.70;1.00;;;;;;;;;;10408587;28;20018;-61
2023/04/15 05:41:48;;;;;;;1.10;1.00;;;;;;;;;;10407358;28;20504;-60
2023/04/15 05:46:49;;;;;;;1.38;1.13;;;;;;;;;;10406979;28;20072;-60
2023/04/15 05:51:50;;;;;;;1.20;1.10;;;;;;;;;;10408022;28;20053;-61
2023/04/15 05:56:50;;;;;;;3.72;1.23;;;;;;;;;;10407694;28;20033;-61
2023/04/15 06:01:51;;;;;;;3.10;1.20;;;;;;;;;;10407616;28;20037;-61
2023/04/15 06:06:52;;;;;;;1.52;1.10;;;;;;;;;;10402217;28;20025;-60
2023/04/15 06:11:52;;;;;;;1.83;1.20;;;;;;;;;;10403596;28;20033;-60
2023/04/15 06:16:53;;;;;;;1.25;1.02;;;;;;;;;;10406184;28;20025;-60
2023/04/15 06:21:54;;;;;;;2.97;1.20;;;;;;;;;;10389165;28;20021;-61
2023/04/15 06:26:55;;;;;;;1.23;1.13;;;;;;;;;;10405132;28;20033;-60
2023/04/15 06:31:55;;;;;;;1.05;1.02;;;;;;;;;;10406284;28;20033;-61
2023/04/15 06:36:56;;;;;;;1.70;1.20;;;;;;;;;;10407424;28;20488;-61
2023/04/15 06:41:57;;;;;;;2.85;1.20;;;;;;;;;;10407001;28;20458;-60
2023/04/15 06:46:57;;;;;;;1.20;1.10;;;;;;;;;;10406904;28;20063;-60
2023/04/15 06:51:59;;;;;;;1.00;1.00;;;;;;;;;;10404780;28;20061;-60
2023/04/15 06:57:00;;;;;;;1.27;1.17;;;;;;;;;;10406852;28;20036;-60
2023/04/15 07:02:01;;;;;;;2.80;1.05;;;;;;;;;;10404276;28;20028;-60
2023/04/15 07:07:01;;;;;;;1.00;1.00;;;;;;;;;;10405672;28;20025;-60
2023/04/15 07:12:02;;;;;;;1.60;1.27;;;;;;;;;;10404106;28;20146;-60
2023/04/15 07:17:02;;;;;;;2.97;1.40;;;;;;;;;;10404524;28;20037;-60
2023/04/15 07:22:03;;;;;;;1.15;1.08;;;;;;;;;;10405239;28;20033;-59
2023/04/15 07:27:04;;;;;;;1.70;0.98;;;;;;;;;;10404145;28;20375;-60
2023/04/15 07:32:05;;;;;;;2.08;1.30;;;;;;;;;;10404877;28;20025;-59
2023/04/15 07:37:05;;;;;;;2.35;1.33;;;;;;;;;;10405113;28;20416;-60
2023/04/15 07:42:06;;;;;;;1.77;1.40;;;;;;;;;;10412761;28;20478;-60
2023/04/15 07:47:07;;;;;;;1.45;1.35;;;;;;;;;;10413431;28;20457;-62
2023/04/15 07:52:07;;;;;;;4.70;1.40;;;;;;;;;;10411586;28;20030;-61
2023/04/15 07:57:08;;;;;;;11.43;2.15;;;;;;;;;;10411081;28;20027;-61
2023/04/15 08:02:10;;;;;;;11.68;2.05;;;;;;;;;;10407764;28;20026;-60
2023/04/15 08:07:10;;;;;;;16.17;1.98;;;;;;;;;;10409504;28;20036;-61
2023/04/15 08:12:12;;;;;;;23.63;3.55;;;;;;;;;;10411995;28;20036;-62
2023/04/15 08:17:12;;;;;;;17.30;3.42;;;;;;;;;;10409866;28;20036;-59
2023/04/15 08:22:14;;;;;;;12.30;3.03;;;;;;;;;;10409384;28;20048;-59
2023/04/15 08:27:14;;;;;;;11.88;4.38;;;;;;;;;;10406827;28;20044;-58
2023/04/15 08:32:15;;;;;;;11.77;4.50;;;;;;;;;;10405582;28;20045;-59
2023/04/15 08:37:16;;;;;;;23.20;4.82;;;;;;;;;;10388377;28;20030;-59
2023/04/15 08:42:22;;;;;;;23.83;4.25;;;;;;;;;;10394816;28;20253;-59
2023/04/15 08:47:27;;;;;;;19.98;4.25;;;;;;;;;;10382151;28;20045;-58
2023/04/15 08:52:30;;;;;;;16.40;4.32;;;;;;;;;;10407880;28;20037;-59
2023/04/15 08:57:32;;;;;;;7.30;3.60;;;;;;;;;;10408462;28;20083;-61
2023/04/15 09:02:32;;;;;;;13.73;3.53;;;;;;;;;;10408294;28;20124;-61
2023/04/15 09:07:35;;;;;;;9.02;3.30;;;;;;;;;;10405748;28;20029;-61
2023/04/15 09:12:36;;;;;;;7.88;2.97;;;;;;;;;;10401779;28;20040;-62
2023/04/15 09:17:42;;;;;;;8.20;3.15;;;;;;;;;;10382302;28;20040;-62
2023/04/15 09:22:46;;;;;;;21.90;3.47;;;;;;;;;;10378770;28;20570;-61
2023/04/15 09:28:07;;;;;;;17.25;3.42;;;;;;;;;;10398891;28;20033;-59
2023/04/15 09:33:09;;;;;;;15.45;3.28;;;;;;;;;;10392926;28;20044;-60
2023/04/15 09:38:11;;;;;;;8.38;2.50;;;;;;;;;;10388520;28;20436;-62
2023/04/15 09:43:12;;;;;;;10.93;2.92;;;;;;;;;;10399675;28;20549;-61
2023/04/15 09:48:26;;;;;;;11.90;3.20;;;;;;;;;;10400987;28;20045;-61
2023/04/15 09:53:27;;;;;;;6.10;2.35;;;;;;;;;;10402187;28;20136;-61
2023/04/15 09:58:30;;;;;;;12.40;2.70;;;;;;;;;;10401561;28;20409;-61
2023/04/15 10:03:36;;;;;;;5.05;2.38;;;;;;;;;;10405284;28;20033;-61
2023/04/15 10:08:37;;;;;;;10.55;2.75;;;;;;;;;;10404301;28;20273;-60
2023/04/15 10:13:38;;;;;;;6.78;2.47;;;;;;;;;;10407163;28;20025;-61
2023/04/15 10:18:46;;;;;;;5.07;2.30;;;;;;;;;;10379523;28;20033;-61
2023/04/15 10:23:47;;;;;;;10.93;2.40;;;;;;;;;;10398569;28;20028;-61
2023/04/15 10:28:48;;;;;;;8.77;2.67;;;;;;;;;;10400491;28;20087;-61
2023/04/15 10:33:50;;;;;;;5.82;2.17;;;;;;;;;;10388052;28;20327;-61
2023/04/15 10:38:51;;;;;;;8.52;2.35;;;;;;;;;;10405665;28;20040;-59
2023/04/15 10:43:59;;;;;;;12.05;2.22;;;;;;;;;;10404968;28;20041;-62
2023/04/15 10:49:05;;;;;;;;;;;;;;;;;;10414482;28;20045;-61
2023/04/15 10:54:29;;;;;;;8.35;2.22;;;;;;;;;;10387887;28;19921;-62
2023/04/15 10:59:38;;;;;;;8.60;2.67;;;;;;;;;;10390353;28;20033;-62
2023/04/15 11:04:58;;;;;;;5.38;2.40;;;;;;;;;;10400551;28;20028;-60
2023/04/15 11:10:00;;;;;;;18.30;2.60;;;;;;;;;;10402088;28;20112;-62
2023/04/15 11:15:39;;;;;;;8.27;2.67;;;;;;;;;;10402165;28;20116;-61
2023/04/15 11:20:44;;;;;;;15.40;2.30;;;;;;;;;;10400857;28;20034;-62
2023/04/15 11:25:45;;;;;;;10.82;2.20;;;;;;;;;;10403465;28;20056;-61
2023/04/15 11:30:45;;;;;;;5.43;2.13;;;;;;;;;;10399220;28;20022;-62
2023/04/15 11:35:48;;;;;;;3.55;2.22;;;;;;;;;;10400208;28;20461;-61
2023/04/15 11:40:51;;;;;;;7.47;2.20;;;;;;;;;;10386548;28;20021;-60
2023/04/15 11:45:57;;;;;;;9.07;2.83;;;;;;;;;;10385005;28;20418;-61
2023/04/15 11:51:00;;;;;;;7.22;2.50;;;;;;;;;;10402600;28;20497;-60
2023/04/15 11:56:00;;;;;;;9.40;2.80;;;;;;;;;;10393405;28;20025;-60
2023/04/15 12:01:01;;;;;;;8.02;2.22;;;;;;;;;;10403627;28;20037;-60
2023/04/15 12:06:18;;;;;;;5.22;2.78;;;;;;;;;;10386754;28;20095;-59
2023/04/15 12:11:35;;;;;;;14.48;2.75;;;;;;;;;;10403706;28;20469;-58
2023/04/15 12:17:00;;;;;;;10.38;2.40;;;;;;;;;;10392621;28;20038;-58
2023/04/15 12:22:09;;;;;;;6.97;2.70;;;;;;;;;;10386026;28;20293;-59
2023/04/15 12:27:12;;;;;;;4.90;2.60;;;;;;;;;;10393960;28;20091;-58
2023/04/15 12:32:15;;;;;;;7.13;2.38;;;;;;;;;;10400924;28;20389;-59
2023/04/15 12:37:16;;;;;;;3.78;2.38;;;;;;;;;;10399442;28;20029;-58
2023/04/15 12:42:17;;;;;;;4.38;2.38;;;;;;;;;;10398530;28;20378;-59
2023/04/15 12:47:18;;;;;;;4.47;2.40;;;;;;;;;;10407577;28;20040;-59
2023/04/15 12:52:18;;;;;;;4.20;1.90;;;;;;;;;;10408990;28;20099;-59
2023/04/15 12:57:19;;;;;;;6.90;1.80;;;;;;;;;;10409371;28;20029;-60
2023/04/15 13:02:24;;;;;;;11.15;2.00;;;;;;;;;;10411423;28;20022;-59
2023/04/15 13:07:24;;;;;;;4.20;1.88;;;;;;;;;;10409663;28;20064;-59
2023/04/15 13:12:26;;;;;;;4.63;1.90;;;;;;;;;;10408887;28;20053;-59
2023/04/15 13:17:27;;;;;;;3.28;1.42;;;;;;;;;;10408329;28;20417;-59
2023/04/15 13:22:27;;;;;;;7.90;1.60;;;;;;;;;;10408298;28;20041;-59
2023/04/15 13:27:28;;;;;;;4.45;2.33;;;;;;;;;;10409044;28;20033;-59
2023/04/15 13:32:28;;;;;;;1.85;1.50;;;;;;;;;;10409417;28;20374;-59
2023/04/15 13:37:29;;;;;;;4.47;1.85;;;;;;;;;;10406453;28;20370;-58
2023/04/15 13:42:30;;;;;;;4.57;1.70;;;;;;;;;;10397777;28;20282;-60
2023/04/15 13:47:31;;;;;;;4.88;1.75;;;;;;;;;;10407423;28;20026;-60
2023/04/15 13:52:31;;;;;;;2.20;1.52;;;;;;;;;;10406934;28;20045;-60
2023/04/15 13:57:32;;;;;;;7.35;1.80;;;;;;;;;;10408359;28;20021;-60
2023/04/15 14:02:32;;;;;;;3.90;1.65;;;;;;;;;;10404186;28;20029;-60
2023/04/15 14:07:33;;;;;;;8.70;1.88;;;;;;;;;;10390418;28;20436;-60
2023/04/15 14:12:34;;;;;;;4.75;1.83;;;;;;;;;;10407847;28;20057;-59
2023/04/15 14:17:34;;;;;;;8.02;1.92;;;;;;;;;;10404815;28;20432;-58
2023/04/15 14:22:35;;;;;;;10.82;1.50;;;;;;;;;;10406297;28;20029;-58
2023/04/15 14:27:36;;;;;;;9.75;1.90;;;;;;;;;;10406842;28;20029;-58
2023/04/15 14:32:36;;;;;;;12.75;2.22;;;;;;;;;;10406931;28;20477;-58
2023/04/15 14:37:37;;;;;;;6.43;1.90;;;;;;;;;;10405988;28;20022;-58
2023/04/15 14:42:37;;;;;;;5.45;1.80;;;;;;;;;;10404646;28;20044;-58
2023/04/15 14:47:38;;;;;;;4.97;1.88;;;;;;;;;;10402217;28;20044;-59
2023/04/15 14:52:39;;;;;;;15.75;2.58;;;;;;;;;;10399388;28;20045;-60
2023/04/15 14:57:41;;;;;;;6.63;1.88;;;;;;;;;;10393798;28;20045;-60
2023/04/15 15:02:41;;;;;;;10.95;1.75;;;;;;;;;;10402218;28;20034;-60
2023/04/15 15:07:42;;;;;;;4.80;1.73;;;;;;;;;;10405410;28;20040;-61
2023/04/15 15:12:42;;;;;;;7.47;2.50;;;;;;;;;;10401534;28;20374;-61
2023/04/15 15:17:43;;;;;;;6.75;1.75;;;;;;;;;;10400838;28;20033;-61
2023/04/15 15:22:44;;;;;;;7.63;2.33;;;;;;;;;;10400928;28;20037;-61
2023/04/15 15:27:45;;;;;;;4.88;1.70;;;;;;;;;;10397816;28;20032;-60
2023/04/15 15:32:45;;;;;;;6.78;1.98;;;;;;;;;;10385568;28;20040;-61
2023/04/15 15:37:46;;;;;;;9.13;1.70;;;;;;;;;;10391996;28;20033;-60
2023/04/15 15:42:49;;;;;;;8.02;1.65;;;;;;;;;;10402870;28;20034;-61
2023/04/15 15:47:50;;;;;;;7.40;1.63;;;;;;;;;;10398071;28;20041;-61
2023/04/15 15:52:51;;;;;;;5.95;1.77;;;;;;;;;;10396044;28;20064;-61
2023/04/15 15:57:53;;;;;;;7.95;1.85;;;;;;;;;;10390313;28;20080;-61
2023/04/15 16:02:56;;;;;;;5.65;1.42;;;;;;;;;;10377471;28;20500;-61
2023/04/15 16:07:57;;;;;;;5.78;1.80;;;;;;;;;;10384364;28;20041;-61
2023/04/15 16:12:57;;;;;;;3.17;1.50;;;;;;;;;;10409585;28;20091;-61
2023/04/15 16:17:59;;;;;;;3.60;1.52;;;;;;;;;;10407256;28;20105;-61
2023/04/15 16:23:02;;;;;;;3.03;1.42;;;;;;;;;;10400639;28;20040;-61
2023/04/15 16:28:02;;;;;;;4.55;1.60;;;;;;;;;;10394019;28;20044;-59
2023/04/15 16:33:05;;;;;;;7.30;1.83;;;;;;;;;;10411220;28;20039;-61
2023/04/15 16:38:05;;;;;;;4.45;1.80;;;;;;;;;;10417107;28;20055;-61
2023/04/15 16:43:16;;;;;;;5.97;1.75;;;;;;;;;;10409523;28;20021;-59
2023/04/15 16:48:19;;;;;;;5.35;1.60;;;;;;;;;;10407513;28;20033;-61
2023/04/15 16:53:19;;;;;;;4.22;1.60;;;;;;;;;;10408450;28;20053;-60
2023/04/15 16:58:20;;;;;;;8.25;2.17;;;;;;;;;;10409519;28;20496;-61
2023/04/15 17:03:21;;;;;;;5.70;1.50;;;;;;;;;;10409806;28;20052;-61
2023/04/15 17:08:21;;;;;;;4.25;1.92;;;;;;;;;;10409467;28;20091;-61
2023/04/15 17:13:22;;;;;;;2.67;1.55;;;;;;;;;;10409951;28;20045;-61
2023/04/15 17:18:23;;;;;;;3.88;1.80;;;;;;;;;;10408222;28;20037;-61
2023/04/15 17:23:25;;;;;;;3.58;1.67;;;;;;;;;;10407478;28;20107;-61
2023/04/15 17:28:25;;;;;;;3.22;1.73;;;;;;;;;;10390264;28;20029;-61
2023/04/15 17:33:26;;;;;;;3.28;1.63;;;;;;;;;;10408060;28;20021;-61
2023/04/15 17:38:26;;;;;;;3.00;1.67;;;;;;;;;;10408682;28;20025;-60
2023/04/15 17:43:27;;;;;;;4.13;1.60;;;;;;;;;;10390107;28;20064;-61
2023/04/15 17:48:27;;;;;;;2.47;1.55;;;;;;;;;;10406838;28;20664;-61
2023/04/15 17:53:28;;;;;;;2.20;1.23;;;;;;;;;;10407414;28;20033;-61
2023/04/15 17:58:29;;;;;;;6.15;1.50;;;;;;;;;;10405934;28;20057;-61
2023/04/15 18:03:30;;;;;;;3.15;1.40;;;;;;;;;;10402255;28;20029;-61
2023/04/15 18:08:31;;;;;;;5.05;1.80;;;;;;;;;;10407429;28;20029;-61
2023/04/15 18:13:31;;;;;;;7.65;1.90;;;;;;;;;;10395487;28;20086;-60
2023/04/15 18:18:32;;;;;;;3.45;1.40;;;;;;;;;;10398064;28;20208;-59
2023/04/15 18:23:33;;;;;;;4.72;1.80;;;;;;;;;;10404029;28;20120;-58
2023/04/15 18:28:34;;;;;;;2.42;1.27;;;;;;;;;;10398982;28;20029;-58
2023/04/15 18:33:35;;;;;;;3.25;1.30;;;;;;;;;;10404390;28;20108;-59
2023/04/15 18:38:35;;;;;;;3.20;1.60;;;;;;;;;;10402366;28;20037;-59
2023/04/15 18:43:36;;;;;;;4.57;1.55;;;;;;;;;;10395457;28;20488;-58
2023/04/15 18:48:37;;;;;;;1.55;1.35;;;;;;;;;;10401876;28;20037;-59
2023/04/15 18:53:37;;;;;;;3.85;1.70;;;;;;;;;;10402430;28;20082;-59
2023/04/15 18:58:38;;;;;;;3.20;1.40;;;;;;;;;;10403461;28;20052;-59
2023/04/15 19:03:38;;;;;;;5.95;1.73;;;;;;;;;;10396471;28;20037;-59
2023/04/15 19:08:39;;;;;;;6.28;1.60;;;;;;;;;;10388892;28;20497;-59
2023/04/15 19:13:39;;;;;;;6.60;1.48;;;;;;;;;;10403077;28;20025;-59
2023/04/15 19:18:40;;;;;;;4.45;1.35;;;;;;;;;;10390178;28;20474;-58
2023/04/15 19:23:44;;;;;;;5.00;1.50;;;;;;;;;;10377236;28;20037;-59
2023/04/15 19:28:44;;;;;;;1.55;1.42;;;;;;;;;;10390047;28;20042;-59
2023/04/15 19:33:45;;;;;;;3.95;1.63;;;;;;;;;;10377470;28;20037;-59
2023/04/15 19:38:46;;;;;;;7.05;2.13;;;;;;;;;;10395638;28;20041;-59
2023/04/15 19:43:46;;;;;;;18.02;2.50;;;;;;;;;;10395234;28;20394;-60
2023/04/15 19:48:47;;;;;;;16.67;2.90;;;;;;;;;;10402909;28;20038;-60
2023/04/15 19:53:52;;;;;;;14.05;3.53;;;;;;;;;;10386526;28;20056;-61
2023/04/15 19:58:53;;;;;;;10.85;2.80;;;;;;;;;;10403622;28;20021;-62
2023/04/15 20:03:54;;;;;;;10.13;2.20;;;;;;;;;;10403757;28;20030;-63
2023/04/15 20:08:57;;;;;;;15.77;3.03;;;;;;;;;;10384927;28;20049;-62
2023/04/15 20:13:58;;;;;;;6.85;2.17;;;;;;;;;;10387518;28;20030;-62
2023/04/15 20:19:02;;;;;;;20.17;2.58;;;;;;;;;;10402305;28;20028;-60
2023/04/15 20:24:03;;;;;;;11.20;2.80;;;;;;;;;;10402724;28;20064;-60
2023/04/15 20:29:04;;;;;;;7.00;1.98;;;;;;;;;;10399505;28;20120;-59
2023/04/15 20:34:05;;;;;;;6.10;2.20;;;;;;;;;;10402455;28;20030;-59
2023/04/15 20:39:05;;;;;;;8.82;2.15;;;;;;;;;;10401401;28;20033;-61
2023/04/15 20:44:06;;;;;;;7.70;2.28;;;;;;;;;;10403454;28;20079;-63
2023/04/15 20:49:07;;;;;;;8.18;2.85;;;;;;;;;;10390571;28;20037;-61
2023/04/15 20:54:07;;;;;;;9.82;2.42;;;;;;;;;;10406777;28;20037;-61
2023/04/15 20:59:08;;;;;;;4.18;1.75;;;;;;;;;;10409133;28;20044;-62
2023/04/15 21:04:09;;;;;;;6.13;2.20;;;;;;;;;;10391748;28;20525;-62
2023/04/15 21:09:09;;;;;;;11.15;1.83;;;;;;;;;;10409720;28;20378;-59
2023/04/15 21:14:11;;;;;;;4.65;1.98;;;;;;;;;;10406572;28;20108;-61
2023/04/15 21:19:11;;;;;;;6.43;1.73;;;;;;;;;;10409062;28;20022;-61
2023/04/15 21:24:12;;;;;;;3.72;2.15;;;;;;;;;;10406726;28;20029;-61
2023/04/15 21:29:12;;;;;;;4.22;2.05;;;;;;;;;;10408593;28;20029;-61
2023/04/15 21:34:13;;;;;;;4.65;1.98;;;;;;;;;;10407200;28;20029;-60
2023/04/15 21:39:13;;;;;;;3.28;1.67;;;;;;;;;;10408071;28;20018;-60
2023/04/15 21:44:14;;;;;;;3.92;1.90;;;;;;;;;;10407782;28;20037;-62
2023/04/15 21:49:15;;;;;;;3.97;1.60;;;;;;;;;;10406089;28;20033;-62
2023/04/15 21:54:15;;;;;;;4.90;2.22;;;;;;;;;;10408843;28;20417;-60
2023/04/15 21:59:16;;;;;;;6.85;2.25;;;;;;;;;;10405388;28;20049;-59
2023/04/15 22:04:16;;;;;;;3.78;1.42;;;;;;;;;;10399002;28;20205;-62
2023/04/15 22:09:17;;;;;;;10.35;2.03;;;;;;;;;;10407125;28;20037;-62
2023/04/15 22:14:18;;;;;;;22.40;2.78;;;;;;;;;;10405057;28;20091;-62
2023/04/15 22:19:18;;;;;;;10.55;2.10;;;;;;;;;;10408006;28;20021;-59
2023/04/15 22:24:19;;;;;;;19.33;2.20;;;;;;;;;;10404904;28;20037;-60
2023/04/15 22:29:20;;;;;;;14.27;2.30;;;;;;;;;;10405313;28;20315;-62
2023/04/15 22:34:21;;;;;;;8.43;1.85;;;;;;;;;;10406904;28;20651;-60
2023/04/15 22:39:22;;;;;;;4.72;2.00;;;;;;;;;;10405278;28;20021;-59
2023/04/15 22:44:22;;;;;;;7.47;1.48;;;;;;;;;;10407099;28;20044;-61
2023/04/15 22:49:23;;;;;;;7.35;1.92;;;;;;;;;;10403616;28;20045;-60
2023/04/15 22:54:23;;;;;;;7.70;1.65;;;;;;;;;;10404844;28;20053;-59
2023/04/15 22:59:24;;;;;;;5.78;2.00;;;;;;;;;;10405817;28;20037;-61
2023/04/15 23:04:25;;;;;;;8.65;2.40;;;;;;;;;;10402862;28;20029;-62
2023/04/15 23:09:26;;;;;;;4.47;1.80;;;;;;;;;;10403075;28;20044;-62
2023/04/15 23:14:26;;;;;;;6.47;1.83;;;;;;;;;;10404531;28;20158;-62
2023/04/15 23:19:27;;;;;;;3.65;1.88;;;;;;;;;;10404133;28;20037;-60
2023/04/15 23:24:28;;;;;;;8.07;1.60;;;;;;;;;;10404682;28;20362;-61
2023/04/15 23:29:28;;;;;;;5.38;1.67;;;;;;;;;;10404787;28;20424;-61
2023/04/15 23:34:29;;;;;;;6.10;1.73;;;;;;;;;;10399808;28;20112;-60
2023/04/15 23:39:30;;;;;;;3.72;1.50;;;;;;;;;;10403269;28;20033;-60
2023/04/15 23:44:30;;;;;;;8.00;1.77;;;;;;;;;;10385006;28;20391;-60
2023/04/15 23:49:31;;;;;;;4.88;1.65;;;;;;;;;;10401089;28;20033;-60
2023/04/15 23:54:31;;;;;;;2.20;1.48;;;;;;;;;;10402482;28;20068;-61
2023/04/15 23:59:32;;;;;;;3.92;1.75;;;;;;;;;;10404840;28;20071;-61
